Vilhena Airport
SBVH : now visible

Airfield :











YOU CAN JOIN US ON...

 
LOGIN :

Register | Disclaimer

   EN    FR    IT 

 









Legend :    VFR   Marginal VFR   IFR   Intensive IFR   Very Intensive IFR
Visi :
Ceiling :
>= 8 km
>= 3000ft
5 to 8 km
1000 to 3000 ft
1500m to 5 km
500 to 1000 ft
800 to 1500m
200 to 500 ft
< 800m
< 200 ft
Symbols :   Thunderstorms  Fog  Heavy snow  Heavy precipitations  Wind > 20 kt






- Airport Elevation : 2018 ft
- IATA code : BVH


SBVH - Vilhena

CURRENT METAR :
  • 061700Z 13005KT 100V160 8000 -TSRA SCT035 FEW040CB OVC070 24/23 Q1013

EXPIRED METARs :
  • 061600Z 28007KT 240V310 9999 TS VCSH SCT035 FEW040CB BKN080 27/23 Q1014
  • 061500Z 21008KT 8000 TS VCSH BKN030 FEW035CB BKN080 24/22 Q1015

TAF TAF SBVH
Valid from the 06 at 12:00 until the 07 at 00:00 UTC


060900Z 0612/0624 36005KT 8000 SCT020 TX30/0617Z TN24/0624Z
BECMG 0614/0616 30005KT SCT035 FEW040TCU RMK PGU



MET'MAP, your aeronautical weather chart ! - Copyright ORBIFLY December 2007 - Disclaimer

ORBIFLY MET'MAP TEAM :

Programming & Development : Alexandra Zaïnal
Concept & original design : Baudouin d'Aumeries
Assistance for programming : Marc-Olivier Méhu
Technical & hardware support : Manuel Goepfert

Contact : metmap@orbifly.com




SOURCES & CREDITS :

   NOAA       Earth
Advisory